sensor_id;sensor_type;location;lat;lon;timestamp;P1;durP1;ratioP1;P2;durP2;ratioP2
1507;SDS011;745;48.586;10.032;2022-07-29T00:02:27;8.27;;;7.57;;
1507;SDS011;745;48.586;10.032;2022-07-29T00:06:58;7.50;;;6.90;;
1507;SDS011;745;48.586;10.032;2022-07-29T00:11:28;7.33;;;6.73;;
1507;SDS011;745;48.586;10.032;2022-07-29T00:16:00;7.13;;;6.53;;
1507;SDS011;745;48.586;10.032;2022-07-29T00:20:30;7.43;;;6.87;;
1507;SDS011;745;48.586;10.032;2022-07-29T00:25:01;6.93;;;6.33;;
1507;SDS011;745;48.586;10.032;2022-07-29T00:29:32;7.20;;;6.60;;
1507;SDS011;745;48.586;10.032;2022-07-29T00:34:02;8.00;;;7.30;;
1507;SDS011;745;48.586;10.032;2022-07-29T00:38:33;10.20;;;9.13;;
1507;SDS011;745;48.586;10.032;2022-07-29T00:43:04;8.30;;;7.60;;
1507;SDS011;745;48.586;10.032;2022-07-29T00:47:34;8.50;;;7.80;;
1507;SDS011;745;48.586;10.032;2022-07-29T00:52:05;9.30;;;8.57;;
1507;SDS011;745;48.586;10.032;2022-07-29T00:56:36;8.53;;;7.83;;
1507;SDS011;745;48.586;10.032;2022-07-29T01:01:07;9.03;;;8.33;;
1507;SDS011;745;48.586;10.032;2022-07-29T01:05:37;8.93;;;8.23;;
1507;SDS011;745;48.586;10.032;2022-07-29T01:10:09;8.60;;;7.90;;
1507;SDS011;745;48.586;10.032;2022-07-29T01:14:40;9.23;;;8.47;;
1507;SDS011;745;48.586;10.032;2022-07-29T01:29:02;10.17;;;9.37;;
1507;SDS011;745;48.586;10.032;2022-07-29T01:33:35;9.70;;;8.90;;
1507;SDS011;745;48.586;10.032;2022-07-29T01:38:22;9.27;;;8.47;;
1507;SDS011;745;48.586;10.032;2022-07-29T01:42:56;10.57;;;9.60;;
1507;SDS011;745;48.586;10.032;2022-07-29T01:47:32;11.40;;;10.37;;
1507;SDS011;745;48.586;10.032;2022-07-29T01:52:05;10.90;;;9.90;;
1507;SDS011;745;48.586;10.032;2022-07-29T01:56:38;11.73;;;10.73;;
1507;SDS011;745;48.586;10.032;2022-07-29T02:01:09;11.30;;;10.37;;
1507;SDS011;745;48.586;10.032;2022-07-29T02:05:41;11.23;;;10.23;;
1507;SDS011;745;48.586;10.032;2022-07-29T02:10:12;11.80;;;10.80;;
1507;SDS011;745;48.586;10.032;2022-07-29T02:14:44;13.70;;;12.50;;
1507;SDS011;745;48.586;10.032;2022-07-29T02:19:17;14.03;;;12.73;;
1507;SDS011;745;48.586;10.032;2022-07-29T02:23:48;11.90;;;10.90;;
1507;SDS011;745;48.586;10.032;2022-07-29T02:28:20;10.20;;;9.40;;
1507;SDS011;745;48.586;10.032;2022-07-29T02:32:52;10.10;;;9.30;;
1507;SDS011;745;48.586;10.032;2022-07-29T02:37:23;7.73;;;7.13;;
1507;SDS011;745;48.586;10.032;2022-07-29T02:41:57;7.70;;;7.10;;
1507;SDS011;745;48.586;10.032;2022-07-29T02:46:34;7.60;;;7.00;;
1507;SDS011;745;48.586;10.032;2022-07-29T02:51:08;7.27;;;6.70;;
1507;SDS011;745;48.586;10.032;2022-07-29T02:56:10;6.50;;;6.00;;
1507;SDS011;745;48.586;10.032;2022-07-29T03:00:43;6.40;;;5.90;;
1507;SDS011;745;48.586;10.032;2022-07-29T03:05:18;5.73;;;5.30;;
1507;SDS011;745;48.586;10.032;2022-07-29T03:09:50;5.27;;;4.87;;
1507;SDS011;745;48.586;10.032;2022-07-29T03:14:21;5.93;;;4.27;;
1507;SDS011;745;48.586;10.032;2022-07-29T03:18:52;5.00;;;4.60;;
1507;SDS011;745;48.586;10.032;2022-07-29T03:23:23;4.60;;;4.30;;
1507;SDS011;745;48.586;10.032;2022-07-29T03:27:56;5.53;;;5.13;;
1507;SDS011;745;48.586;10.032;2022-07-29T03:32:27;4.53;;;4.13;;
1507;SDS011;745;48.586;10.032;2022-07-29T03:36:58;5.10;;;4.70;;
1507;SDS011;745;48.586;10.032;2022-07-29T03:41:28;4.50;;;4.10;;
1507;SDS011;745;48.586;10.032;2022-07-29T03:46:00;4.20;;;3.90;;
1507;SDS011;745;48.586;10.032;2022-07-29T03:50:32;4.60;;;4.20;;
1507;SDS011;745;48.586;10.032;2022-07-29T03:55:04;4.00;;;3.70;;
1507;SDS011;745;48.586;10.032;2022-07-29T03:59:36;4.23;;;3.93;;
1507;SDS011;745;48.586;10.032;2022-07-29T04:04:07;4.10;;;3.80;;
1507;SDS011;745;48.586;10.032;2022-07-29T04:08:38;3.73;;;3.43;;
1507;SDS011;745;48.586;10.032;2022-07-29T04:13:09;4.43;;;4.13;;
1507;SDS011;745;48.586;10.032;2022-07-29T04:17:39;3.90;;;3.60;;
1507;SDS011;745;48.586;10.032;2022-07-29T04:22:09;4.07;;;3.77;;
1507;SDS011;745;48.586;10.032;2022-07-29T04:26:40;4.10;;;3.80;;
1507;SDS011;745;48.586;10.032;2022-07-29T04:31:11;3.87;;;3.57;;
1507;SDS011;745;48.586;10.032;2022-07-29T04:35:42;3.80;;;3.60;;
1507;SDS011;745;48.586;10.032;2022-07-29T04:40:12;3.40;;;3.20;;
1507;SDS011;745;48.586;10.032;2022-07-29T04:44:44;3.50;;;3.30;;
1507;SDS011;745;48.586;10.032;2022-07-29T04:49:14;3.80;;;3.50;;
1507;SDS011;745;48.586;10.032;2022-07-29T04:53:44;3.50;;;3.20;;
1507;SDS011;745;48.586;10.032;2022-07-29T04:58:15;3.50;;;3.20;;
1507;SDS011;745;48.586;10.032;2022-07-29T05:02:46;3.93;;;3.63;;
1507;SDS011;745;48.586;10.032;2022-07-29T05:07:16;3.20;;;3.00;;
1507;SDS011;745;48.586;10.032;2022-07-29T05:11:47;3.77;;;3.47;;
1507;SDS011;745;48.586;10.032;2022-07-29T05:16:17;3.80;;;3.50;;
1507;SDS011;745;48.586;10.032;2022-07-29T05:20:48;3.60;;;3.30;;
1507;SDS011;745;48.586;10.032;2022-07-29T05:25:18;4.30;;;4.00;;
1507;SDS011;745;48.586;10.032;2022-07-29T05:29:49;5.37;;;4.87;;
1507;SDS011;745;48.586;10.032;2022-07-29T05:34:20;4.10;;;3.70;;
1507;SDS011;745;48.586;10.032;2022-07-29T05:38:50;3.63;;;3.33;;
1507;SDS011;745;48.586;10.032;2022-07-29T05:43:22;5.30;;;4.80;;
1507;SDS011;745;48.586;10.032;2022-07-29T05:47:53;5.30;;;4.60;;
1507;SDS011;745;48.586;10.032;2022-07-29T05:52:23;4.90;;;4.50;;
1507;SDS011;745;48.586;10.032;2022-07-29T05:56:54;4.67;;;4.30;;
1507;SDS011;745;48.586;10.032;2022-07-29T06:01:24;5.27;;;4.80;;
1507;SDS011;745;48.586;10.032;2022-07-29T06:05:55;6.30;;;5.70;;
1507;SDS011;745;48.586;10.032;2022-07-29T06:10:25;8.57;;;7.83;;
1507;SDS011;745;48.586;10.032;2022-07-29T06:14:58;6.00;;;5.50;;
1507;SDS011;745;48.586;10.032;2022-07-29T06:19:29;7.43;;;6.73;;
1507;SDS011;745;48.586;10.032;2022-07-29T06:23:59;14.57;;;13.27;;
1507;SDS011;745;48.586;10.032;2022-07-29T06:28:30;10.87;;;9.97;;
1507;SDS011;745;48.586;10.032;2022-07-29T06:33:01;12.80;;;11.70;;
1507;SDS011;745;48.586;10.032;2022-07-29T06:37:32;15.60;;;14.20;;
1507;SDS011;745;48.586;10.032;2022-07-29T06:42:05;12.40;;;11.30;;
1507;SDS011;745;48.586;10.032;2022-07-29T06:46:36;11.47;;;10.53;;
1507;SDS011;745;48.586;10.032;2022-07-29T06:51:07;10.43;;;9.53;;
1507;SDS011;745;48.586;10.032;2022-07-29T06:55:38;10.73;;;9.83;;
1507;SDS011;745;48.586;10.032;2022-07-29T07:00:09;10.07;;;9.17;;
1507;SDS011;745;48.586;10.032;2022-07-29T07:04:40;9.07;;;8.37;;
1507;SDS011;745;48.586;10.032;2022-07-29T07:09:11;9.67;;;8.77;;
1507;SDS011;745;48.586;10.032;2022-07-29T07:13:42;10.13;;;9.13;;
1507;SDS011;745;48.586;10.032;2022-07-29T07:18:12;8.57;;;7.87;;
1507;SDS011;745;48.586;10.032;2022-07-29T07:22:43;8.00;;;7.30;;
1507;SDS011;745;48.586;10.032;2022-07-29T07:27:14;7.47;;;6.87;;
1507;SDS011;745;48.586;10.032;2022-07-29T07:31:45;10.83;;;9.83;;
1507;SDS011;745;48.586;10.032;2022-07-29T07:36:15;8.17;;;7.47;;
1507;SDS011;745;48.586;10.032;2022-07-29T07:40:46;9.17;;;8.33;;
1507;SDS011;745;48.586;10.032;2022-07-29T07:45:16;9.77;;;8.97;;
1507;SDS011;745;48.586;10.032;2022-07-29T07:49:47;8.27;;;7.57;;
1507;SDS011;745;48.586;10.032;2022-07-29T07:54:18;9.53;;;8.60;;
1507;SDS011;745;48.586;10.032;2022-07-29T07:58:48;10.80;;;9.90;;
1507;SDS011;745;48.586;10.032;2022-07-29T08:03:19;8.53;;;7.80;;
1507;SDS011;745;48.586;10.032;2022-07-29T08:07:49;12.13;;;10.93;;
1507;SDS011;745;48.586;10.032;2022-07-29T08:12:20;8.50;;;7.70;;
1507;SDS011;745;48.586;10.032;2022-07-29T08:16:51;7.90;;;7.30;;
1507;SDS011;745;48.586;10.032;2022-07-29T08:21:27;11.33;;;10.33;;
1507;SDS011;745;48.586;10.032;2022-07-29T08:25:58;6.30;;;5.80;;
1507;SDS011;745;48.586;10.032;2022-07-29T08:30:28;8.30;;;7.60;;
1507;SDS011;745;48.586;10.032;2022-07-29T08:34:59;7.90;;;7.20;;
1507;SDS011;745;48.586;10.032;2022-07-29T08:39:30;7.27;;;6.57;;
1507;SDS011;745;48.586;10.032;2022-07-29T08:44:01;6.23;;;5.73;;
1507;SDS011;745;48.586;10.032;2022-07-29T08:48:31;7.20;;;6.70;;
1507;SDS011;745;48.586;10.032;2022-07-29T08:53:02;8.90;;;8.00;;
1507;SDS011;745;48.586;10.032;2022-07-29T08:57:33;8.43;;;7.73;;
1507;SDS011;745;48.586;10.032;2022-07-29T09:02:04;8.07;;;7.47;;
1507;SDS011;745;48.586;10.032;2022-07-29T09:06:36;6.60;;;6.10;;
1507;SDS011;745;48.586;10.032;2022-07-29T09:11:08;12.93;;;11.93;;
1507;SDS011;745;48.586;10.032;2022-07-29T09:15:40;7.53;;;6.83;;
1507;SDS011;745;48.586;10.032;2022-07-29T09:20:12;8.00;;;7.30;;
1507;SDS011;745;48.586;10.032;2022-07-29T09:24:46;12.23;;;11.23;;
1507;SDS011;745;48.586;10.032;2022-07-29T09:29:18;8.60;;;7.90;;
1507;SDS011;745;48.586;10.032;2022-07-29T09:33:50;7.10;;;6.60;;
1507;SDS011;745;48.586;10.032;2022-07-29T09:38:21;9.93;;;9.07;;
1507;SDS011;745;48.586;10.032;2022-07-29T09:42:52;10.30;;;9.50;;
1507;SDS011;745;48.586;10.032;2022-07-29T09:47:39;8.40;;;7.70;;
1507;SDS011;745;48.586;10.032;2022-07-29T09:52:11;8.67;;;7.97;;
1507;SDS011;745;48.586;10.032;2022-07-29T09:56:42;8.03;;;7.33;;
1507;SDS011;745;48.586;10.032;2022-07-29T10:01:12;7.57;;;6.93;;
1507;SDS011;745;48.586;10.032;2022-07-29T10:05:44;8.40;;;7.70;;
1507;SDS011;745;48.586;10.032;2022-07-29T10:10:23;8.00;;;7.40;;
1507;SDS011;745;48.586;10.032;2022-07-29T10:14:55;8.63;;;7.73;;
1507;SDS011;745;48.586;10.032;2022-07-29T10:19:25;9.57;;;8.20;;
1507;SDS011;745;48.586;10.032;2022-07-29T10:23:58;8.50;;;7.80;;
1507;SDS011;745;48.586;10.032;2022-07-29T10:28:30;8.70;;;7.90;;
1507;SDS011;745;48.586;10.032;2022-07-29T10:43:03;9.13;;;8.33;;
1507;SDS011;745;48.586;10.032;2022-07-29T10:47:45;8.13;;;7.40;;
1507;SDS011;745;48.586;10.032;2022-07-29T10:52:15;9.57;;;8.67;;
1507;SDS011;745;48.586;10.032;2022-07-29T10:56:46;8.33;;;7.70;;
1507;SDS011;745;48.586;10.032;2022-07-29T11:01:30;10.87;;;9.93;;
1507;SDS011;745;48.586;10.032;2022-07-29T11:06:01;9.03;;;7.60;;
1507;SDS011;745;48.586;10.032;2022-07-29T11:10:31;9.53;;;8.60;;
1507;SDS011;745;48.586;10.032;2022-07-29T11:15:03;5.87;;;5.37;;
1507;SDS011;745;48.586;10.032;2022-07-29T11:19:36;4.30;;;3.90;;
1507;SDS011;745;48.586;10.032;2022-07-29T11:24:12;4.60;;;4.30;;
1507;SDS011;745;48.586;10.032;2022-07-29T11:33:29;4.23;;;3.93;;
1507;SDS011;745;48.586;10.032;2022-07-29T11:42:56;3.47;;;3.20;;
1507;SDS011;745;48.586;10.032;2022-07-29T11:47:28;3.40;;;3.20;;
1507;SDS011;745;48.586;10.032;2022-07-29T11:51:59;4.20;;;3.80;;
1507;SDS011;745;48.586;10.032;2022-07-29T11:56:32;4.27;;;3.97;;
1507;SDS011;745;48.586;10.032;2022-07-29T12:01:04;3.40;;;3.20;;
1507;SDS011;745;48.586;10.032;2022-07-29T12:10:14;4.40;;;4.10;;
1507;SDS011;745;48.586;10.032;2022-07-29T12:14:45;6.47;;;4.63;;
1507;SDS011;745;48.586;10.032;2022-07-29T12:19:16;4.50;;;4.20;;
1507;SDS011;745;48.586;10.032;2022-07-29T12:23:54;4.83;;;4.43;;
1507;SDS011;745;48.586;10.032;2022-07-29T12:28:26;5.47;;;4.10;;
1507;SDS011;745;48.586;10.032;2022-07-29T12:32:56;4.87;;;4.53;;
1507;SDS011;745;48.586;10.032;2022-07-29T12:37:27;4.70;;;4.40;;
1507;SDS011;745;48.586;10.032;2022-07-29T12:41:57;4.73;;;4.43;;
1507;SDS011;745;48.586;10.032;2022-07-29T12:46:28;4.67;;;4.37;;
1507;SDS011;745;48.586;10.032;2022-07-29T12:51:00;4.50;;;4.20;;
1507;SDS011;745;48.586;10.032;2022-07-29T12:55:41;4.30;;;4.00;;
1507;SDS011;745;48.586;10.032;2022-07-29T13:00:14;4.43;;;4.13;;
1507;SDS011;745;48.586;10.032;2022-07-29T13:04:44;4.63;;;4.30;;
1507;SDS011;745;48.586;10.032;2022-07-29T13:09:35;4.37;;;4.07;;
1507;SDS011;745;48.586;10.032;2022-07-29T13:14:08;4.03;;;3.73;;
1507;SDS011;745;48.586;10.032;2022-07-29T13:18:39;5.00;;;4.43;;
1507;SDS011;745;48.586;10.032;2022-07-29T13:23:11;4.83;;;4.43;;
1507;SDS011;745;48.586;10.032;2022-07-29T13:27:41;5.70;;;5.17;;
1507;SDS011;745;48.586;10.032;2022-07-29T13:32:14;5.73;;;5.33;;
1507;SDS011;745;48.586;10.032;2022-07-29T13:36:45;7.33;;;6.50;;
1507;SDS011;745;48.586;10.032;2022-07-29T13:41:15;7.60;;;6.97;;
1507;SDS011;745;48.586;10.032;2022-07-29T13:45:45;6.80;;;6.30;;
1507;SDS011;745;48.586;10.032;2022-07-29T13:50:16;6.80;;;6.30;;
1507;SDS011;745;48.586;10.032;2022-07-29T13:54:46;7.40;;;6.90;;
1507;SDS011;745;48.586;10.032;2022-07-29T13:59:17;8.47;;;7.77;;
1507;SDS011;745;48.586;10.032;2022-07-29T14:03:48;8.90;;;8.10;;
1507;SDS011;745;48.586;10.032;2022-07-29T14:08:18;8.70;;;8.00;;
1507;SDS011;745;48.586;10.032;2022-07-29T14:12:49;9.33;;;8.53;;
1507;SDS011;745;48.586;10.032;2022-07-29T14:17:19;8.60;;;7.80;;
1507;SDS011;745;48.586;10.032;2022-07-29T14:21:50;8.37;;;7.57;;
1507;SDS011;745;48.586;10.032;2022-07-29T14:26:21;7.40;;;6.80;;
1507;SDS011;745;48.586;10.032;2022-07-29T14:30:52;8.80;;;8.00;;
1507;SDS011;745;48.586;10.032;2022-07-29T14:35:22;7.50;;;6.90;;
1507;SDS011;745;48.586;10.032;2022-07-29T14:39:52;8.07;;;7.47;;
1507;SDS011;745;48.586;10.032;2022-07-29T14:44:24;6.80;;;6.30;;
1507;SDS011;745;48.586;10.032;2022-07-29T14:49:00;7.50;;;6.90;;
1507;SDS011;745;48.586;10.032;2022-07-29T14:53:31;6.90;;;6.40;;
1507;SDS011;745;48.586;10.032;2022-07-29T14:58:02;6.57;;;6.07;;
1507;SDS011;745;48.586;10.032;2022-07-29T15:02:33;7.03;;;6.53;;
1507;SDS011;745;48.586;10.032;2022-07-29T15:07:03;7.37;;;6.67;;
1507;SDS011;745;48.586;10.032;2022-07-29T15:11:34;6.70;;;6.20;;
1507;SDS011;745;48.586;10.032;2022-07-29T15:16:05;6.90;;;6.40;;
1507;SDS011;745;48.586;10.032;2022-07-29T15:20:36;6.40;;;5.87;;
1507;SDS011;745;48.586;10.032;2022-07-29T15:25:06;6.53;;;6.03;;
1507;SDS011;745;48.586;10.032;2022-07-29T15:29:37;5.70;;;5.30;;
1507;SDS011;745;48.586;10.032;2022-07-29T15:34:08;6.27;;;5.77;;
1507;SDS011;745;48.586;10.032;2022-07-29T15:38:38;6.60;;;6.10;;
1507;SDS011;745;48.586;10.032;2022-07-29T15:43:10;6.73;;;5.97;;
1507;SDS011;745;48.586;10.032;2022-07-29T15:47:41;6.20;;;5.70;;
1507;SDS011;745;48.586;10.032;2022-07-29T15:52:12;6.90;;;6.40;;
1507;SDS011;745;48.586;10.032;2022-07-29T15:56:42;6.63;;;6.10;;
1507;SDS011;745;48.586;10.032;2022-07-29T16:01:13;6.30;;;5.80;;
1507;SDS011;745;48.586;10.032;2022-07-29T16:05:44;5.80;;;5.10;;
1507;SDS011;745;48.586;10.032;2022-07-29T16:10:15;5.50;;;5.10;;
1507;SDS011;745;48.586;10.032;2022-07-29T16:14:45;5.90;;;5.30;;
1507;SDS011;745;48.586;10.032;2022-07-29T16:19:18;5.70;;;4.90;;
1507;SDS011;745;48.586;10.032;2022-07-29T16:23:49;5.13;;;4.73;;
1507;SDS011;745;48.586;10.032;2022-07-29T16:28:20;4.70;;;4.30;;
1507;SDS011;745;48.586;10.032;2022-07-29T16:32:50;4.90;;;4.50;;
1507;SDS011;745;48.586;10.032;2022-07-29T16:37:21;4.87;;;4.47;;
1507;SDS011;745;48.586;10.032;2022-07-29T16:41:51;4.87;;;4.47;;
1507;SDS011;745;48.586;10.032;2022-07-29T16:46:22;5.93;;;5.43;;
1507;SDS011;745;48.586;10.032;2022-07-29T16:50:53;4.90;;;4.50;;
1507;SDS011;745;48.586;10.032;2022-07-29T16:55:24;5.97;;;5.47;;
1507;SDS011;745;48.586;10.032;2022-07-29T16:59:54;6.53;;;5.93;;
1507;SDS011;745;48.586;10.032;2022-07-29T17:04:25;7.03;;;6.43;;
1507;SDS011;745;48.586;10.032;2022-07-29T17:08:56;6.70;;;6.20;;
1507;SDS011;745;48.586;10.032;2022-07-29T17:13:26;7.47;;;6.77;;
1507;SDS011;745;48.586;10.032;2022-07-29T17:17:57;7.00;;;6.40;;
1507;SDS011;745;48.586;10.032;2022-07-29T17:22:29;6.73;;;6.20;;
1507;SDS011;745;48.586;10.032;2022-07-29T17:27:01;7.07;;;6.43;;
1507;SDS011;745;48.586;10.032;2022-07-29T17:31:32;7.33;;;6.73;;
1507;SDS011;745;48.586;10.032;2022-07-29T17:36:02;7.23;;;6.63;;
1507;SDS011;745;48.586;10.032;2022-07-29T17:40:51;8.80;;;8.00;;
1507;SDS011;745;48.586;10.032;2022-07-29T17:45:22;8.00;;;7.30;;
1507;SDS011;745;48.586;10.032;2022-07-29T17:49:52;8.13;;;7.43;;
1507;SDS011;745;48.586;10.032;2022-07-29T17:54:23;8.50;;;7.83;;
1507;SDS011;745;48.586;10.032;2022-07-29T17:58:53;8.67;;;7.90;;
1507;SDS011;745;48.586;10.032;2022-07-29T18:03:24;10.17;;;9.27;;
1507;SDS011;745;48.586;10.032;2022-07-29T18:07:54;10.13;;;9.10;;
1507;SDS011;745;48.586;10.032;2022-07-29T18:12:25;9.40;;;8.47;;
1507;SDS011;745;48.586;10.032;2022-07-29T18:16:55;9.43;;;8.63;;
1507;SDS011;745;48.586;10.032;2022-07-29T18:21:26;10.27;;;9.27;;
1507;SDS011;745;48.586;10.032;2022-07-29T18:25:58;9.73;;;8.93;;
1507;SDS011;745;48.586;10.032;2022-07-29T18:30:28;12.53;;;10.30;;
1507;SDS011;745;48.586;10.032;2022-07-29T18:34:59;9.67;;;8.80;;
1507;SDS011;745;48.586;10.032;2022-07-29T18:39:32;11.20;;;10.20;;
1507;SDS011;745;48.586;10.032;2022-07-29T18:44:02;10.07;;;9.27;;
1507;SDS011;745;48.586;10.032;2022-07-29T18:48:33;10.00;;;9.17;;
1507;SDS011;745;48.586;10.032;2022-07-29T18:53:04;10.67;;;9.80;;
1507;SDS011;745;48.586;10.032;2022-07-29T18:57:34;9.57;;;8.70;;
1507;SDS011;745;48.586;10.032;2022-07-29T19:02:05;10.53;;;9.60;;
1507;SDS011;745;48.586;10.032;2022-07-29T19:06:36;11.70;;;9.93;;
1507;SDS011;745;48.586;10.032;2022-07-29T19:11:06;10.90;;;9.97;;
1507;SDS011;745;48.586;10.032;2022-07-29T19:15:36;10.97;;;9.97;;
1507;SDS011;745;48.586;10.032;2022-07-29T19:20:07;11.20;;;10.10;;
1507;SDS011;745;48.586;10.032;2022-07-29T19:24:39;11.97;;;11.07;;
1507;SDS011;745;48.586;10.032;2022-07-29T19:29:09;10.77;;;9.83;;
1507;SDS011;745;48.586;10.032;2022-07-29T19:33:40;11.00;;;10.10;;
1507;SDS011;745;48.586;10.032;2022-07-29T19:38:11;11.57;;;10.67;;
1507;SDS011;745;48.586;10.032;2022-07-29T19:42:42;12.93;;;11.73;;
1507;SDS011;745;48.586;10.032;2022-07-29T19:47:13;10.63;;;9.73;;
1507;SDS011;745;48.586;10.032;2022-07-29T19:51:43;11.50;;;10.60;;
1507;SDS011;745;48.586;10.032;2022-07-29T19:56:14;9.07;;;8.37;;
1507;SDS011;745;48.586;10.032;2022-07-29T20:00:44;10.03;;;9.13;;
1507;SDS011;745;48.586;10.032;2022-07-29T20:05:14;10.53;;;9.73;;
1507;SDS011;745;48.586;10.032;2022-07-29T20:09:45;10.47;;;9.47;;
1507;SDS011;745;48.586;10.032;2022-07-29T20:14:16;9.20;;;8.47;;
1507;SDS011;745;48.586;10.032;2022-07-29T20:18:47;8.40;;;7.80;;
1507;SDS011;745;48.586;10.032;2022-07-29T20:23:17;10.27;;;9.27;;
1507;SDS011;745;48.586;10.032;2022-07-29T20:27:51;10.10;;;9.30;;
1507;SDS011;745;48.586;10.032;2022-07-29T20:32:23;10.00;;;9.20;;
1507;SDS011;745;48.586;10.032;2022-07-29T20:36:53;10.70;;;9.90;;
1507;SDS011;745;48.586;10.032;2022-07-29T20:41:24;10.70;;;9.90;;
1507;SDS011;745;48.586;10.032;2022-07-29T20:45:55;10.73;;;9.63;;
1507;SDS011;745;48.586;10.032;2022-07-29T20:50:26;11.30;;;10.37;;
1507;SDS011;745;48.586;10.032;2022-07-29T20:54:57;12.40;;;11.30;;
1507;SDS011;745;48.586;10.032;2022-07-29T20:59:28;13.07;;;11.97;;
1507;SDS011;745;48.586;10.032;2022-07-29T21:03:59;11.70;;;10.60;;
1507;SDS011;745;48.586;10.032;2022-07-29T21:08:30;12.73;;;11.63;;
1507;SDS011;745;48.586;10.032;2022-07-29T21:13:01;11.00;;;10.10;;
1507;SDS011;745;48.586;10.032;2022-07-29T21:17:32;14.20;;;12.87;;
1507;SDS011;745;48.586;10.032;2022-07-29T21:22:08;12.93;;;11.80;;
1507;SDS011;745;48.586;10.032;2022-07-29T21:26:38;15.67;;;14.17;;
1507;SDS011;745;48.586;10.032;2022-07-29T21:31:09;12.40;;;11.40;;
1507;SDS011;745;48.586;10.032;2022-07-29T21:35:41;10.10;;;9.27;;
1507;SDS011;745;48.586;10.032;2022-07-29T21:40:12;12.87;;;11.70;;
1507;SDS011;745;48.586;10.032;2022-07-29T21:44:42;10.50;;;9.67;;
1507;SDS011;745;48.586;10.032;2022-07-29T21:49:13;9.20;;;8.50;;
1507;SDS011;745;48.586;10.032;2022-07-29T21:53:43;9.90;;;9.10;;
1507;SDS011;745;48.586;10.032;2022-07-29T21:58:14;7.67;;;7.07;;
1507;SDS011;745;48.586;10.032;2022-07-29T22:02:44;8.00;;;7.40;;
1507;SDS011;745;48.586;10.032;2022-07-29T22:07:15;7.53;;;6.97;;
1507;SDS011;745;48.586;10.032;2022-07-29T22:11:45;8.30;;;7.57;;
1507;SDS011;745;48.586;10.032;2022-07-29T22:16:16;8.40;;;7.70;;
1507;SDS011;745;48.586;10.032;2022-07-29T22:20:48;9.10;;;8.30;;
1507;SDS011;745;48.586;10.032;2022-07-29T22:25:19;10.10;;;9.27;;
1507;SDS011;745;48.586;10.032;2022-07-29T22:29:49;9.57;;;8.83;;
1507;SDS011;745;48.586;10.032;2022-07-29T22:34:20;11.47;;;10.47;;
1507;SDS011;745;48.586;10.032;2022-07-29T22:38:50;11.27;;;10.37;;
1507;SDS011;745;48.586;10.032;2022-07-29T22:43:21;11.73;;;10.70;;
1507;SDS011;745;48.586;10.032;2022-07-29T22:47:52;11.33;;;10.43;;
1507;SDS011;745;48.586;10.032;2022-07-29T22:52:23;12.43;;;11.40;;
1507;SDS011;745;48.586;10.032;2022-07-29T22:56:53;12.53;;;11.43;;
1507;SDS011;745;48.586;10.032;2022-07-29T23:01:24;14.57;;;13.27;;
1507;SDS011;745;48.586;10.032;2022-07-29T23:05:55;11.93;;;10.93;;
1507;SDS011;745;48.586;10.032;2022-07-29T23:10:25;13.20;;;12.10;;
1507;SDS011;745;48.586;10.032;2022-07-29T23:14:56;12.07;;;11.07;;
1507;SDS011;745;48.586;10.032;2022-07-29T23:19:27;14.20;;;12.90;;
1507;SDS011;745;48.586;10.032;2022-07-29T23:23:57;12.60;;;11.50;;
1507;SDS011;745;48.586;10.032;2022-07-29T23:28:28;13.03;;;11.83;;
1507;SDS011;745;48.586;10.032;2022-07-29T23:32:58;11.90;;;10.80;;
1507;SDS011;745;48.586;10.032;2022-07-29T23:37:29;12.90;;;11.80;;
1507;SDS011;745;48.586;10.032;2022-07-29T23:41:59;10.90;;;10.00;;
1507;SDS011;745;48.586;10.032;2022-07-29T23:46:30;12.13;;;11.03;;
1507;SDS011;745;48.586;10.032;2022-07-29T23:51:00;13.37;;;12.27;;
1507;SDS011;745;48.586;10.032;2022-07-29T23:55:31;15.00;;;13.57;;
